createdAt,value
2023-04-01T00:04:18.734Z,10.71
2023-04-01T00:09:21.066Z,10.68
2023-04-01T00:14:23.147Z,10.67
2023-04-01T00:19:24.997Z,10.66
2023-04-01T00:24:26.880Z,10.66
2023-04-01T00:29:30.390Z,10.64
2023-04-01T00:34:32.416Z,10.62
2023-04-01T00:39:35.680Z,10.59
2023-04-01T00:44:38.793Z,10.57
2023-04-01T00:49:43.822Z,10.54
2023-04-01T00:54:50.755Z,10.53
2023-04-01T00:59:56.040Z,10.49
2023-04-01T01:04:57.971Z,10.47
2023-04-01T01:10:06.610Z,10.45
2023-04-01T01:15:14.685Z,10.44
2023-04-01T01:20:48.107Z,10.45
2023-04-01T01:26:08.017Z,10.45
2023-04-01T01:31:28.996Z,10.45
2023-04-01T01:36:38.156Z,10.43
2023-04-01T01:41:46.223Z,10.40
2023-04-01T01:46:49.708Z,10.36
2023-04-01T01:51:52.192Z,10.35
2023-04-01T01:57:06.527Z,10.34
2023-04-01T02:02:10.749Z,10.32
2023-04-01T02:07:22.894Z,10.34
2023-04-01T02:12:26.009Z,10.32
2023-04-01T02:17:31.174Z,10.32
2023-04-01T02:22:36.914Z,10.32
2023-04-01T02:27:40.194Z,10.32
2023-04-01T02:32:43.649Z,10.34
2023-04-01T02:37:51.109Z,10.36
2023-04-01T02:42:53.094Z,10.37
2023-04-01T02:47:54.953Z,10.38
2023-04-01T02:52:57.206Z,10.37
2023-04-01T02:57:59.213Z,10.36
2023-04-01T03:03:01.528Z,10.32
2023-04-01T03:08:04.030Z,10.30
2023-04-01T03:13:05.934Z,10.27
2023-04-01T03:18:08.193Z,10.24
2023-04-01T03:23:10.129Z,10.24
2023-04-01T03:28:13.437Z,10.23
2023-04-01T03:33:15.607Z,10.23
2023-04-01T03:38:17.456Z,10.22
2023-04-01T03:43:19.387Z,10.22
2023-04-01T03:48:21.939Z,10.21
2023-04-01T03:53:23.889Z,10.22
2023-04-01T03:58:27.149Z,10.23
2023-04-01T04:03:30.134Z,10.23
2023-04-01T04:08:32.316Z,10.24
2023-04-01T04:13:34.252Z,10.24
2023-04-01T04:18:37.821Z,10.24
2023-04-01T04:23:39.586Z,10.23
2023-04-01T04:28:41.778Z,10.25
2023-04-01T04:33:44.425Z,10.25
2023-04-01T04:38:46.676Z,10.25
2023-04-01T04:43:57.171Z,10.24
2023-04-01T04:49:00.691Z,10.24
2023-04-01T04:54:07.227Z,10.25
2023-04-01T04:59:29.665Z,10.24
2023-04-01T05:04:40.902Z,10.24
2023-04-01T05:09:46.809Z,10.24
2023-04-01T05:14:49.583Z,10.26
2023-04-01T05:19:51.466Z,10.27
2023-04-01T05:24:53.417Z,10.26
2023-04-01T05:29:55.934Z,10.27
2023-04-01T05:35:14.253Z,10.29
2023-04-01T05:40:17.315Z,10.30
2023-04-01T05:45:19.238Z,10.30
2023-04-01T05:50:42.874Z,10.32
2023-04-01T05:55:46.311Z,10.33
2023-04-01T06:00:59.011Z,10.35
2023-04-01T06:06:16.774Z,10.41
2023-04-01T06:11:38.169Z,10.46
2023-04-01T06:16:46.320Z,10.50
2023-04-01T06:22:12.472Z,10.57
2023-04-01T06:27:26.887Z,10.61
2023-04-01T06:32:46.738Z,10.64
2023-04-01T06:38:07.402Z,10.69
2023-04-01T06:43:46.733Z,10.75
2023-04-01T06:49:50.529Z,10.82
2023-04-01T06:55:53.857Z,10.88
2023-04-01T07:01:21.977Z,10.91
2023-04-01T07:06:47.578Z,11.00
2023-04-01T07:11:49.687Z,11.01
2023-04-01T07:17:34.975Z,11.06
2023-04-01T07:22:45.830Z,11.10
2023-04-01T07:28:03.078Z,11.16
2023-04-01T07:33:44.230Z,11.18
2023-04-01T07:39:06.904Z,11.18
2023-04-01T07:44:46.227Z,11.19
2023-04-01T07:50:14.795Z,11.18
2023-04-01T07:55:39.511Z,11.23
2023-04-01T08:01:06.306Z,11.38
2023-04-01T08:06:25.567Z,11.46
2023-04-01T08:11:43.516Z,11.52
2023-04-01T08:17:14.264Z,11.60
2023-04-01T08:22:59.026Z,11.80
2023-04-01T08:28:09.400Z,11.98
2023-04-01T08:33:32.437Z,11.97
2023-04-01T08:39:06.580Z,12.06
2023-04-01T08:44:21.754Z,12.19
2023-04-01T08:49:55.574Z,12.31
2023-04-01T08:55:27.495Z,12.39
2023-04-01T09:01:08.685Z,12.41
2023-04-01T09:06:41.390Z,12.41
2023-04-01T09:12:01.883Z,12.35
2023-04-01T09:17:36.710Z,12.31
2023-04-01T09:22:38.598Z,12.28
2023-04-01T09:27:59.628Z,12.33
2023-04-01T09:33:36.120Z,12.40
2023-04-01T09:39:04.730Z,12.39
2023-04-01T09:44:09.897Z,12.40
2023-04-01T09:49:56.144Z,12.41
2023-04-01T09:55:28.792Z,12.51
2023-04-01T10:01:00.414Z,12.70
2023-04-01T10:06:40.090Z,12.81
2023-04-01T10:11:57.078Z,12.93
2023-04-01T10:17:18.266Z,13.01
2023-04-01T10:22:36.425Z,13.01
2023-04-01T10:28:09.823Z,13.11
2023-04-01T10:33:59.615Z,13.14
2023-04-01T10:39:20.506Z,13.08
2023-04-01T10:44:48.552Z,13.04
2023-04-01T10:50:09.712Z,13.05
2023-04-01T10:55:36.885Z,13.15
2023-04-01T11:01:34.902Z,13.27
2023-04-01T11:07:10.842Z,13.38
2023-04-01T11:12:21.963Z,13.51
2023-04-01T11:17:43.123Z,13.49
2023-04-01T11:22:51.189Z,13.50
2023-04-01T11:28:24.282Z,13.57
2023-04-01T11:33:55.226Z,13.55
2023-04-01T11:39:22.660Z,13.52
2023-04-01T11:45:01.911Z,13.64
2023-04-01T11:51:07.379Z,13.85
2023-04-01T11:56:35.646Z,13.92
2023-04-01T12:01:50.024Z,13.91
2023-04-01T12:07:16.040Z,13.89
2023-04-01T12:13:00.475Z,14.03
2023-04-01T12:18:22.195Z,14.08
2023-04-01T12:24:06.600Z,14.23
2023-04-01T12:29:40.743Z,14.14
2023-04-01T12:34:59.398Z,14.06
2023-04-01T12:40:18.008Z,13.93
2023-04-01T12:45:22.923Z,13.71
2023-04-01T12:50:47.811Z,13.45
2023-04-01T12:55:53.715Z,13.35
2023-04-01T13:00:56.326Z,13.48
2023-04-01T13:06:22.658Z,13.70
2023-04-01T13:11:37.951Z,13.81
2023-04-01T13:17:01.696Z,13.89
2023-04-01T13:22:18.618Z,14.02
2023-04-01T13:27:30.811Z,14.07
2023-04-01T13:33:03.692Z,14.07
2023-04-01T13:38:14.409Z,14.04
2023-04-01T13:43:27.135Z,14.02
2023-04-01T13:48:47.564Z,14.03
2023-04-01T13:53:58.078Z,14.13
2023-04-01T13:59:29.858Z,14.13
2023-04-01T14:05:07.883Z,14.02
2023-04-01T14:10:38.934Z,13.93
2023-04-01T14:15:43.480Z,14.01
2023-04-01T14:21:24.441Z,14.14
2023-04-01T14:26:43.798Z,14.13
2023-04-01T14:32:11.728Z,14.13
2023-04-01T14:37:32.513Z,14.15
2023-04-01T14:42:55.048Z,14.16
2023-04-01T14:48:07.365Z,14.07
2023-04-01T14:53:40.076Z,13.93
2023-04-01T14:58:51.451Z,13.87
2023-04-01T15:04:05.479Z,13.84
2023-04-01T15:09:29.100Z,13.81
2023-04-01T15:14:43.184Z,13.78
2023-04-01T15:20:25.286Z,13.78
2023-04-01T15:26:09.448Z,13.78
2023-04-01T15:31:22.825Z,13.70
2023-04-01T15:36:41.473Z,13.66
2023-04-01T15:42:12.505Z,13.62
2023-04-01T15:47:46.896Z,13.56
2023-04-01T15:53:13.150Z,13.48
2023-04-01T15:58:53.695Z,13.43
2023-04-01T16:04:21.493Z,13.37
2023-04-01T16:09:50.099Z,13.32
2023-04-01T16:14:58.525Z,13.26
2023-04-01T16:20:15.648Z,13.22
2023-04-01T16:25:48.421Z,13.17
2023-04-01T16:31:07.436Z,13.10
2023-04-01T16:36:37.365Z,13.03
2023-04-01T16:41:53.563Z,12.96
2023-04-01T16:46:57.174Z,12.94
2023-04-01T16:52:15.147Z,12.88
2023-04-01T16:57:48.940Z,12.78
2023-04-01T17:03:05.795Z,12.76
2023-04-01T17:08:23.727Z,12.75
2023-04-01T17:13:49.858Z,12.73
2023-04-01T17:19:34.759Z,12.69
2023-04-01T17:24:42.404Z,12.67
2023-04-01T17:29:44.180Z,12.63
2023-04-01T17:34:58.111Z,12.61
2023-04-01T17:40:24.459Z,12.59
2023-04-01T17:45:44.436Z,12.55
2023-04-01T17:51:04.553Z,12.50
2023-04-01T17:56:13.444Z,12.49
2023-04-01T18:01:37.050Z,12.49
2023-04-01T18:07:05.732Z,12.48
2023-04-01T18:12:13.099Z,12.46
2023-04-01T18:18:05.987Z,12.43
2023-04-01T18:23:30.585Z,12.40
2023-04-01T18:28:41.136Z,12.37
2023-04-01T18:34:03.517Z,12.35
2023-04-01T18:39:35.319Z,12.32
2023-04-01T18:45:22.113Z,12.26
2023-04-01T18:50:34.214Z,12.23
2023-04-01T18:55:40.848Z,12.20
2023-04-01T19:00:50.204Z,12.21
2023-04-01T19:05:54.738Z,12.19
2023-04-01T19:11:11.376Z,12.09
2023-04-01T19:16:28.732Z,12.05
2023-04-01T19:21:38.709Z,12.05
2023-04-01T19:27:04.099Z,12.02
2023-04-01T19:32:16.748Z,12.01
2023-04-01T19:37:37.110Z,12.02
2023-04-01T19:43:13.653Z,12.02
2023-04-01T19:48:39.615Z,12.00
2023-04-01T19:54:15.413Z,11.97
2023-04-01T19:59:25.849Z,11.94
2023-04-01T20:04:36.082Z,11.92
2023-04-01T20:09:50.852Z,11.93
2023-04-01T20:14:59.672Z,11.90
2023-04-01T20:20:25.209Z,11.88
2023-04-01T20:25:32.204Z,11.88
2023-04-01T20:30:58.869Z,11.87
2023-04-01T20:36:29.925Z,11.84
2023-04-01T20:41:34.785Z,11.83
2023-04-01T20:47:15.574Z,11.84
2023-04-01T20:52:26.492Z,11.85
2023-04-01T20:57:40.520Z,11.87
2023-04-01T21:03:16.433Z,11.89
2023-04-01T21:08:41.494Z,11.87
2023-04-01T21:14:06.917Z,11.86
2023-04-01T21:19:30.572Z,11.84
2023-04-01T21:25:03.053Z,11.82
2023-04-01T21:30:23.863Z,11.81
2023-04-01T21:35:51.832Z,11.81
2023-04-01T21:41:11.641Z,11.79
2023-04-01T21:47:02.923Z,11.76
2023-04-01T21:52:17.607Z,11.72
2023-04-01T21:58:07.027Z,11.69
2023-04-01T22:03:45.584Z,11.68
2023-04-01T22:09:00.171Z,11.65
2023-04-01T22:14:21.242Z,11.60
2023-04-01T22:19:42.964Z,11.53
2023-04-01T22:25:11.286Z,11.51
2023-04-01T22:30:39.054Z,11.49
2023-04-01T22:36:31.322Z,11.38
2023-04-01T22:41:49.311Z,11.20
2023-04-01T22:47:16.073Z,11.09
2023-04-01T22:52:30.010Z,10.99
2023-04-01T22:57:31.839Z,10.94
2023-04-01T23:03:05.480Z,10.81
2023-04-01T23:08:48.825Z,10.75
2023-04-01T23:13:59.383Z,10.64
2023-04-01T23:19:08.424Z,10.55
2023-04-01T23:24:39.668Z,10.50
2023-04-01T23:29:43.971Z,10.40
2023-04-01T23:35:13.345Z,10.29
2023-04-01T23:40:18.683Z,10.22
2023-04-01T23:45:21.959Z,10.20
2023-04-01T23:50:27.166Z,10.18
2023-04-01T23:55:33.822Z,10.19
